Time;durP1;ratioP1;P1;durP2;ratioP2;P2;SDS_P1;SDS_P2;PMS_P1;PMS_P2;Temp;Humidity;BMP_temperature;BMP_pressure;BME280_temperature;BME280_humidity;BME280_pressure;Samples;Min_cycle;Max_cycle;Signal;HPM_P1;HPM_P2
2021/03/26 00:00:45;;;;;;;12.15;6.03;;;5.90;99.90;;;;;;5047537;28;20033;-72
2021/03/26 00:03:15;;;;;;;12.70;5.40;;;5.80;99.90;;;;;;5049367;28;20037;-73
2021/03/26 00:05:43;;;;;;;12.55;5.97;;;5.80;99.90;;;;;;5049797;28;20067;-72
2021/03/26 00:08:12;;;;;;;11.00;5.70;;;5.80;99.90;;;;;;5041217;28;20095;-72
2021/03/26 00:10:38;;;;;;;14.45;5.75;;;5.70;99.90;;;;;;5046822;28;20067;-75
2021/03/26 00:13:05;;;;;;;13.45;5.85;;;5.60;99.90;;;;;;5046466;28;20039;-74
2021/03/26 00:15:31;;;;;;;14.02;6.32;;;5.60;99.90;;;;;;5049566;28;20033;-74
2021/03/26 00:17:56;;;;;;;9.63;4.72;;;5.60;99.90;;;;;;5048825;28;20491;-74
2021/03/26 00:20:22;;;;;;;10.82;5.70;;;5.60;99.90;;;;;;5049350;28;20029;-74
2021/03/26 00:22:48;;;;;;;13.45;5.78;;;5.60;99.90;;;;;;5048270;28;20052;-74
2021/03/26 00:25:14;;;;;;;12.43;5.75;;;5.50;99.90;;;;;;5046664;28;20044;-73
2021/03/26 00:27:40;;;;;;;14.52;5.43;;;5.50;99.90;;;;;;5048528;28;20052;-74
2021/03/26 00:30:09;;;;;;;15.73;5.45;;;5.40;99.90;;;;;;5049172;28;20021;-74
2021/03/26 00:32:35;;;;;;;13.38;6.10;;;5.40;99.90;;;;;;5038134;28;20057;-73
2021/03/26 00:35:01;;;;;;;15.32;6.55;;;5.40;99.90;;;;;;5028424;28;20033;-74
2021/03/26 00:37:27;;;;;;;11.25;5.88;;;5.30;99.90;;;;;;5032278;28;20120;-73
2021/03/26 00:39:52;;;;;;;10.85;6.28;;;5.30;99.90;;;;;;5033059;28;20041;-74
2021/03/26 00:42:18;;;;;;;12.85;6.38;;;5.20;99.90;;;;;;5030841;28;20503;-74
2021/03/26 00:44:44;;;;;;;14.80;7.57;;;5.00;99.90;;;;;;5033086;28;20025;-74
2021/03/26 00:47:12;;;;;;;21.23;7.78;;;4.90;99.90;;;;;;5032252;28;20059;-74
2021/03/26 00:49:38;;;;;;;17.65;7.25;;;4.90;99.90;;;;;;5031430;28;20033;-74
2021/03/26 00:52:04;;;;;;;13.95;6.97;;;4.80;99.90;;;;;;5014116;28;20047;-74
2021/03/26 00:54:31;;;;;;;17.25;8.00;;;4.90;99.90;;;;;;5014739;28;20457;-73
2021/03/26 00:56:57;;;;;;;19.25;7.45;;;4.90;99.90;;;;;;5030698;28;20042;-74
2021/03/26 00:59:22;;;;;;;21.00;8.27;;;5.00;99.90;;;;;;5035513;28;20192;-74
2021/03/26 01:01:48;;;;;;;22.58;8.38;;;5.00;99.90;;;;;;5048225;28;20055;-73
2021/03/26 01:04:14;;;;;;;16.67;7.85;;;5.00;99.90;;;;;;5052043;28;20029;-73
2021/03/26 01:06:39;;;;;;;18.73;7.85;;;4.90;99.90;;;;;;5033738;28;20120;-74
2021/03/26 01:09:06;;;;;;;16.65;7.47;;;4.90;99.90;;;;;;5050979;28;20061;-74
2021/03/26 01:11:36;;;;;;;20.98;7.65;;;4.80;99.90;;;;;;5033307;28;20152;-74
2021/03/26 01:14:05;;;;;;;19.63;6.93;;;4.70;99.90;;;;;;5034693;28;20065;-74
2021/03/26 01:16:33;;;;;;;22.65;7.75;;;4.70;99.90;;;;;;5050445;28;20025;-73
2021/03/26 01:19:01;;;;;;;17.45;7.75;;;4.60;99.90;;;;;;5050666;28;20028;-74
2021/03/26 01:21:31;;;;;;;16.75;7.00;;;4.50;99.90;;;;;;5050158;28;20128;-73
2021/03/26 01:23:57;;;;;;;18.45;7.95;;;4.50;99.90;;;;;;5049327;28;20036;-74
2021/03/26 01:26:24;;;;;;;17.60;8.68;;;4.50;99.90;;;;;;5048822;28;20017;-74
2021/03/26 01:29:11;;;;;;;20.83;8.25;;;4.50;99.90;;;;;;5057543;28;20305;-74
2021/03/26 01:31:45;;;;;;;20.73;8.63;;;4.50;99.90;;;;;;5029837;28;20041;-74
2021/03/26 01:34:11;;;;;;;22.33;8.75;;;4.60;99.90;;;;;;5031994;28;20101;-74
2021/03/26 01:36:43;;;;;;;18.00;7.85;;;4.70;99.90;;;;;;5030126;28;20064;-74
2021/03/26 01:39:12;;;;;;;20.38;8.70;;;4.80;99.90;;;;;;5014560;28;20033;-73
2021/03/26 01:41:46;;;;;;;21.20;8.35;;;4.80;99.90;;;;;;5030922;28;20119;-73
2021/03/26 01:44:18;;;;;;;18.52;8.48;;;4.80;99.90;;;;;;5030529;28;20036;-74
2021/03/26 01:46:46;;;;;;;21.80;9.00;;;4.80;99.90;;;;;;5030165;28;20037;-74
2021/03/26 01:49:14;;;;;;;23.77;9.75;;;4.80;99.90;;;;;;5014223;28;20087;-74
2021/03/26 01:51:44;;;;;;;25.73;9.10;;;4.90;99.90;;;;;;5029383;28;20029;-74
2021/03/26 01:54:20;;;;;;;20.85;8.63;;;4.90;99.90;;;;;;5013885;28;20440;-74
2021/03/26 01:56:46;;;;;;;21.73;9.27;;;4.90;99.90;;;;;;5029791;28;20400;-74
2021/03/26 01:59:44;;;;;;;19.50;8.20;;;4.80;99.90;;;;;;5028037;28;20691;-74
2021/03/26 02:02:19;;;;;;;18.20;8.20;;;4.90;99.90;;;;;;5026482;28;20099;-74
2021/03/26 02:05:08;;;;;;;23.20;8.75;;;5.00;99.90;;;;;;5031364;28;20108;-74
2021/03/26 02:07:43;;;;;;;18.60;8.13;;;5.00;99.90;;;;;;5030780;28;20053;-74
2021/03/26 02:10:16;;;;;;;19.55;7.95;;;5.00;99.90;;;;;;5040963;28;20516;-74
2021/03/26 02:12:42;;;;;;;13.85;7.53;;;5.00;99.90;;;;;;5050448;28;20039;-74
2021/03/26 02:15:25;;;;;;;17.08;8.18;;;5.00;99.90;;;;;;5046688;28;20021;-74
2021/03/26 02:17:51;;;;;;;17.20;6.97;;;5.00;99.90;;;;;;5050357;28;20082;-74
2021/03/26 02:20:38;;;;;;;19.58;8.50;;;5.00;99.90;;;;;;5033675;28;20457;-74
2021/03/26 02:23:16;;;;;;;16.48;7.82;;;5.00;99.90;;;;;;5049511;28;20041;-74
2021/03/26 02:26:07;;;;;;;16.75;8.05;;;4.90;99.90;;;;;;5050303;28;20032;-74
2021/03/26 02:28:33;;;;;;;21.48;8.38;;;5.00;99.90;;;;;;5049622;28;20032;-74
2021/03/26 02:31:22;;;;;;;21.38;8.68;;;5.00;99.90;;;;;;5048285;28;20555;-74
2021/03/26 02:33:48;;;;;;;24.90;8.63;;;5.00;99.90;;;;;;5030877;28;20381;-74
2021/03/26 02:36:16;;;;;;;18.40;8.23;;;5.00;99.90;;;;;;5028970;28;20029;-74
2021/03/26 02:38:59;;;;;;;21.70;9.13;;;4.90;99.90;;;;;;5029561;28;20440;-74
2021/03/26 02:41:43;;;;;;;17.55;7.80;;;4.90;99.90;;;;;;5012637;28;20053;-74
2021/03/26 02:44:35;;;;;;;15.77;7.93;;;4.90;99.90;;;;;;5029417;28;20477;-74
2021/03/26 02:47:29;;;;;;;14.75;7.47;;;4.90;99.90;;;;;;5029003;28;20080;-74
2021/03/26 02:50:46;;;;;;;20.50;8.23;;;4.90;99.90;;;;;;5029261;28;20087;-74
2021/03/26 02:53:15;;;;;;;16.75;8.98;;;4.90;99.90;;;;;;5029349;28;20030;-74
2021/03/26 02:55:40;;;;;;;17.23;8.32;;;5.00;99.90;;;;;;5029261;28;20032;-74
2021/03/26 02:58:11;;;;;;;20.88;7.63;;;5.00;99.90;;;;;;5028173;28;20041;-74
2021/03/26 03:00:51;;;;;;;17.88;7.95;;;5.00;99.90;;;;;;5028320;28;20036;-74
2021/03/26 03:03:23;;;;;;;18.88;7.63;;;5.00;99.90;;;;;;5028963;28;20033;-74
2021/03/26 03:05:58;;;;;;;17.73;7.72;;;5.10;99.90;;;;;;5030481;28;20566;-74
2021/03/26 03:08:49;;;;;;;16.35;8.18;;;5.10;99.90;;;;;;5030393;28;20041;-74
2021/03/26 03:11:42;;;;;;;15.75;7.90;;;5.10;99.90;;;;;;5027800;28;20147;-74
2021/03/26 03:14:23;;;;;;;16.38;7.55;;;5.20;99.90;;;;;;5025988;28;20043;-74
2021/03/26 03:17:09;;;;;;;17.77;8.45;;;5.20;99.90;;;;;;5028363;28;20641;-73
2021/03/26 03:20:02;;;;;;;18.42;8.13;;;5.30;99.90;;;;;;5028716;28;20083;-74
2021/03/26 03:22:32;;;;;;;19.23;8.48;;;5.30;99.90;;;;;;5028233;28;20396;-74
2021/03/26 03:25:07;;;;;;;18.27;8.70;;;5.40;99.90;;;;;;5028857;28;20030;-74
2021/03/26 03:27:45;;;;;;;17.47;8.20;;;5.40;99.90;;;;;;5028497;28;20037;-74
2021/03/26 03:30:46;;;;;;;21.42;8.52;;;5.50;99.90;;;;;;5030442;28;20065;-74
2021/03/26 03:33:24;;;;;;;17.85;8.15;;;5.50;99.90;;;;;;5050685;28;20032;-74
2021/03/26 03:36:00;;;;;;;21.10;7.80;;;5.50;99.90;;;;;;5068817;28;20115;-74
2021/03/26 03:38:46;;;;;;;19.17;7.82;;;5.30;99.90;;;;;;5069285;28;20029;-74
2021/03/26 03:41:24;;;;;;;17.85;7.53;;;5.20;99.90;;;;;;5067909;28;20032;-74
2021/03/26 03:43:54;;;;;;;13.98;7.28;;;5.10;99.90;;;;;;5068659;28;20120;-74
2021/03/26 03:46:39;;;;;;;16.40;7.82;;;5.10;99.90;;;;;;5068094;28;20043;-74
2021/03/26 03:49:24;;;;;;;18.67;7.50;;;5.00;99.90;;;;;;5070161;28;20033;-74
2021/03/26 03:52:16;;;;;;;18.20;7.70;;;5.10;99.90;;;;;;5067773;28;20025;-74
2021/03/26 03:55:04;;;;;;;18.05;8.02;;;5.00;99.90;;;;;;5068507;28;20020;-74
2021/03/26 03:57:53;;;;;;;19.20;8.00;;;5.00;99.90;;;;;;5067942;28;20491;-74
2021/03/26 04:00:23;;;;;;;21.08;7.78;;;5.00;99.90;;;;;;5067786;28;20158;-74
2021/03/26 04:03:35;;;;;;;17.50;8.13;;;5.10;99.90;;;;;;5068458;28;20064;-74
2021/03/26 04:06:04;;;;;;;18.08;8.70;;;5.20;99.90;;;;;;5057120;28;20067;-74
2021/03/26 04:08:41;;;;;;;14.38;7.40;;;5.20;99.90;;;;;;5067792;28;20036;-74
2021/03/26 04:11:31;;;;;;;18.73;7.63;;;5.30;99.90;;;;;;5050918;28;20129;-74
2021/03/26 04:14:18;;;;;;;16.63;7.90;;;5.20;99.90;;;;;;5052171;28;20032;-74
2021/03/26 04:16:50;;;;;;;17.00;8.25;;;5.10;99.90;;;;;;5051291;28;20036;-74
2021/03/26 04:19:26;;;;;;;17.23;7.82;;;5.00;99.90;;;;;;5051970;28;20029;-74
2021/03/26 04:22:06;;;;;;;14.35;6.88;;;4.90;99.90;;;;;;5035162;28;20407;-74
2021/03/26 04:25:05;;;;;;;13.52;7.40;;;4.80;99.90;;;;;;5049765;28;20052;-74
2021/03/26 04:27:45;;;;;;;19.60;8.20;;;4.80;99.90;;;;;;5052621;28;20045;-74
2021/03/26 04:30:44;;;;;;;16.55;7.50;;;4.80;99.90;;;;;;5043364;28;20042;-73
2021/03/26 04:33:24;;;;;;;14.40;7.82;;;4.90;99.90;;;;;;5017176;28;20111;-73
2021/03/26 04:35:51;;;;;;;15.15;6.88;;;4.90;99.90;;;;;;5031815;28;20072;-74
2021/03/26 04:38:48;;;;;;;15.57;7.53;;;5.00;99.90;;;;;;5031249;28;20037;-73
2021/03/26 04:41:23;;;;;;;16.38;7.38;;;4.90;99.90;;;;;;5031095;28;20313;-74
2021/03/26 04:44:05;;;;;;;14.65;7.75;;;4.80;99.90;;;;;;5031640;28;20035;-74
2021/03/26 04:47:25;;;;;;;17.17;7.75;;;4.70;99.90;;;;;;5030910;28;20037;-73
2021/03/26 04:50:22;;;;;;;19.08;8.38;;;4.60;99.90;;;;;;4995313;28;20026;-74
2021/03/26 04:52:56;;;;;;;21.80;8.85;;;4.50;99.90;;;;;;5032231;28;20037;-73
2021/03/26 04:55:26;;;;;;;17.65;8.30;;;4.40;99.90;;;;;;5033064;28;20392;-74
2021/03/26 04:58:02;;;;;;;17.10;8.25;;;4.30;99.90;;;;;;5032102;28;20476;-73
2021/03/26 05:00:52;;;;;;;18.45;8.98;;;4.20;99.90;;;;;;5030477;28;20029;-73
2021/03/26 05:03:18;;;;;;;23.30;8.55;;;4.10;99.90;;;;;;5031941;28;20447;-74
2021/03/26 05:05:51;;;;;;;15.30;7.78;;;4.00;99.90;;;;;;5051284;28;20032;-74
2021/03/26 05:08:24;;;;;;;19.55;8.75;;;4.00;99.90;;;;;;5045290;28;20477;-74
2021/03/26 05:11:14;;;;;;;19.50;9.20;;;4.00;99.90;;;;;;5055300;28;20582;-73
2021/03/26 05:13:49;;;;;;;21.13;9.48;;;4.00;99.90;;;;;;5034409;28;20029;-73
2021/03/26 05:16:49;;;;;;;18.05;8.07;;;4.00;99.90;;;;;;5051904;28;20055;-74
2021/03/26 05:19:51;;;;;;;17.02;8.02;;;4.00;99.90;;;;;;5051727;28;20539;-74
2021/03/26 05:23:01;;;;;;;20.92;9.73;;;4.00;99.90;;;;;;5049378;28;20032;-73
2021/03/26 05:25:57;;;;;;;19.35;8.90;;;4.00;99.90;;;;;;5052150;28;20049;-74
2021/03/26 05:28:45;;;;;;;17.52;8.32;;;4.10;99.90;;;;;;5050311;28;20028;-73
2021/03/26 05:31:30;;;;;;;20.98;8.98;;;4.10;99.90;;;;;;5051143;28;20060;-74
2021/03/26 05:34:02;;;;;;;21.75;9.60;;;4.10;99.90;;;;;;5030913;28;20030;-74
2021/03/26 05:36:44;;;;;;;17.25;8.82;;;4.20;99.90;;;;;;5030099;28;20051;-74
2021/03/26 05:39:32;;;;;;;20.38;9.07;;;4.20;99.90;;;;;;5045755;28;20542;-73
2021/03/26 05:42:50;;;;;;;17.93;8.80;;;4.20;99.90;;;;;;5049575;28;20040;-73
2021/03/26 05:45:53;;;;;;;17.88;8.63;;;4.20;99.90;;;;;;5051704;28;20037;-73
2021/03/26 05:48:35;;;;;;;14.80;8.10;;;4.20;99.90;;;;;;5044498;28;20518;-73
2021/03/26 05:51:27;;;;;;;17.50;8.82;;;4.20;99.90;;;;;;5047837;28;20036;-73
2021/03/26 05:54:24;;;;;;;21.60;8.02;;;4.30;99.90;;;;;;5046041;28;20028;-73
2021/03/26 05:56:58;;;;;;;20.08;8.25;;;4.50;99.90;;;;;;5047566;28;20403;-74
2021/03/26 05:59:48;;;;;;;15.40;7.78;;;4.60;99.90;;;;;;5049948;28;20025;-74
2021/03/26 06:02:38;;;;;;;17.67;8.13;;;4.90;99.90;;;;;;5043205;28;20033;-74
2021/03/26 06:05:56;;;;;;;21.90;9.05;;;5.10;99.90;;;;;;5044405;28;20040;-74
2021/03/26 06:08:59;;;;;;;20.52;9.60;;;5.50;99.90;;;;;;5039057;28;20043;-73
2021/03/26 06:12:02;;;;;;;24.08;9.85;;;5.80;99.90;;;;;;5042572;28;20054;-74
2021/03/26 06:15:42;;;;;;;19.98;9.30;;;6.10;99.90;;;;;;5038414;28;20033;-74
2021/03/26 06:18:54;;;;;;;18.17;9.10;;;6.40;99.90;;;;;;5040337;28;20443;-74
2021/03/26 06:22:34;;;;;;;14.45;8.43;;;6.80;99.90;;;;;;5039006;28;20032;-74
2021/03/26 06:25:41;;;;;;;14.80;7.32;;;7.20;99.90;;;;;;5012926;28;20377;-74
2021/03/26 06:28:30;;;;;;;17.05;9.40;;;7.60;99.90;;;;;;5030606;28;20033;-74
2021/03/26 06:31:14;;;;;;;20.50;10.10;;;8.10;99.90;;;;;;5039137;28;20021;-74
2021/03/26 06:34:21;;;;;;;19.47;11.03;;;8.50;99.90;;;;;;5041346;28;20086;-74
2021/03/26 06:37:02;;;;;;;21.60;10.77;;;8.60;99.90;;;;;;5023924;28;20041;-73
2021/03/26 06:39:49;;;;;;;17.33;8.45;;;8.80;99.90;;;;;;5039942;28;20040;-73
2021/03/26 06:42:39;;;;;;;15.43;7.60;;;9.00;99.90;;;;;;5040377;28;20028;-74
2021/03/26 06:45:08;;;;;;;14.20;7.53;;;9.30;99.90;;;;;;5039631;28;20018;-74
2021/03/26 06:48:00;;;;;;;16.10;7.80;;;9.40;99.90;;;;;;5039365;28;20488;-74
2021/03/26 06:50:46;;;;;;;13.75;7.72;;;9.70;99.90;;;;;;5036604;28;20781;-74
2021/03/26 06:53:31;;;;;;;;;;;9.90;99.90;;;;;;5049218;28;20060;-74
2021/03/26 06:56:15;;;;;;;17.10;7.50;;;10.20;99.90;;;;;;5048931;28;19915;-74
2021/03/26 06:59:35;;;;;;;13.55;7.63;;;10.30;99.90;;;;;;5048829;28;20025;-73
2021/03/26 07:02:24;;;;;;;14.88;6.07;;;10.50;99.90;;;;;;5026445;28;20049;-73
2021/03/26 07:05:20;;;;;;;15.13;7.20;;;10.60;99.90;;;;;;5040549;28;20033;-74
2021/03/26 07:08:13;;;;;;;15.73;6.97;;;10.70;99.90;;;;;;5032833;28;20029;-74
2021/03/26 07:10:39;;;;;;;11.43;7.10;;;11.10;99.90;;;;;;5044988;28;20401;-74
2021/03/26 07:13:16;;;;;;;13.68;6.85;;;11.40;99.90;;;;;;5043336;28;20033;-74
2021/03/26 07:15:42;;;;;;;17.33;7.68;;;11.70;99.90;;;;;;5045012;28;20055;-74
2021/03/26 07:18:22;;;;;;;13.75;6.57;;;11.90;99.90;;;;;;5039732;28;20444;-74
2021/03/26 07:21:17;;;;;;;12.45;6.18;;;12.20;99.90;;;;;;5045830;28;20025;-74
2021/03/26 07:23:47;;;;;;;9.95;6.10;;;12.50;99.90;;;;;;5046273;28;20033;-74
2021/03/26 07:26:39;;;;;;;14.40;6.88;;;12.80;99.90;;;;;;5042908;28;20047;-74
2021/03/26 07:29:29;;;;;;;13.70;6.45;;;13.30;99.90;;;;;;5040983;28;20434;-74
2021/03/26 07:32:07;;;;;;;9.57;6.18;;;13.90;99.90;;;;;;5037002;28;20028;-75
2021/03/26 07:34:43;;;;;;;11.32;6.20;;;14.40;99.90;;;;;;5042190;28;20406;-74
2021/03/26 07:37:44;;;;;;;10.07;6.97;;;14.60;99.90;;;;;;5033738;28;20094;-74
2021/03/26 07:40:38;;;;;;;9.85;6.15;;;14.90;99.60;;;;;;5038513;28;20025;-74
2021/03/26 07:43:15;;;;;;;11.38;7.45;;;15.20;96.40;;;;;;5037055;28;20029;-74
2021/03/26 07:46:10;;;;;;;12.73;7.40;;;15.50;95.10;;;;;;5040757;28;20514;-74
2021/03/26 07:48:39;;;;;;;14.60;7.07;;;15.70;94.30;;;;;;5042759;28;20086;-74
2021/03/26 07:51:11;;;;;;;12.13;6.93;;;15.90;91.90;;;;;;5044160;28;20040;-74
2021/03/26 07:53:55;;;;;;;10.50;7.00;;;16.10;91.70;;;;;;5041513;28;20021;-74
2021/03/26 07:56:34;;;;;;;13.43;7.85;;;16.20;91.10;;;;;;5044154;28;20021;-74
2021/03/26 07:59:28;;;;;;;15.77;8.15;;;16.30;90.10;;;;;;5048335;28;20041;-74
2021/03/26 08:02:03;;;;;;;13.35;7.25;;;16.30;90.50;;;;;;5042272;28;20087;-74
2021/03/26 08:04:47;;;;;;;14.02;7.68;;;16.40;90.60;;;;;;5039215;28;20109;-74
2021/03/26 08:07:31;;;;;;;16.30;7.57;;;16.20;87.10;;;;;;5043003;28;20029;-74
2021/03/26 08:10:09;;;;;;;13.77;8.00;;;16.20;89.60;;;;;;5043620;28;20032;-74
2021/03/26 08:12:56;;;;;;;22.50;8.55;;;16.00;86.40;;;;;;5042638;28;20095;-74
2021/03/26 08:15:46;;;;;;;14.68;8.27;;;16.00;86.30;;;;;;5050433;28;20027;-74
2021/03/26 08:18:41;;;;;;;15.50;8.35;;;16.20;86.10;;;;;;5044443;28;20504;-74
2021/03/26 08:21:37;;;;;;;12.93;8.05;;;16.30;86.60;;;;;;5042137;28;20036;-74
2021/03/26 08:24:23;;;;;;;;;;;16.50;85.60;;;;;;5041274;28;20047;-74
2021/03/26 08:27:24;;;;;;;13.68;8.15;;;16.60;84.70;;;;;;5041348;28;19909;-74
2021/03/26 08:29:57;;;;;;;16.55;7.97;;;16.60;83.30;;;;;;5039768;28;20353;-74
2021/03/26 08:33:15;;;;;;;13.82;8.30;;;16.50;84.20;;;;;;5039833;28;20100;-74
2021/03/26 08:36:05;;;;;;;19.52;8.48;;;16.20;84.00;;;;;;5023853;28;20473;-74
2021/03/26 08:38:42;;;;;;;19.17;8.43;;;15.90;85.00;;;;;;5044593;28;20096;-74
2021/03/26 08:41:22;;;;;;;19.13;9.55;;;15.70;86.30;;;;;;5044119;28;20087;-73
2021/03/26 08:43:53;;;;;;;15.32;7.78;;;15.40;83.80;;;;;;5035035;28;20039;-74
2021/03/26 08:46:28;;;;;;;17.23;8.48;;;15.10;87.50;;;;;;5042167;28;20036;-73
2021/03/26 08:49:08;;;;;;;20.45;8.75;;;15.00;89.20;;;;;;5043487;28;20124;-74
2021/03/26 08:52:03;;;;;;;16.73;8.48;;;14.80;88.10;;;;;;5042663;28;20033;-74
2021/03/26 08:54:42;;;;;;;17.27;8.85;;;14.40;90.70;;;;;;5041923;28;20057;-74
2021/03/26 08:57:19;;;;;;;19.08;9.38;;;14.20;91.80;;;;;;5047181;28;20029;-73
2021/03/26 09:00:29;;;;;;;15.73;9.13;;;14.10;92.00;;;;;;5045363;28;20017;-74
2021/03/26 09:03:04;;;;;;;12.75;7.38;;;14.00;92.90;;;;;;5033372;28;20041;-74
2021/03/26 09:05:53;;;;;;;16.20;8.30;;;14.10;93.90;;;;;;5041830;28;20079;-74
2021/03/26 09:08:23;;;;;;;18.13;8.73;;;14.10;93.30;;;;;;5042519;28;20052;-74
2021/03/26 09:11:25;;;;;;;19.70;8.70;;;14.10;93.70;;;;;;5042229;28;20033;-73
2021/03/26 09:17:36;;;;;;;22.15;9.05;;;14.20;92.00;;;;;;5106247;27;20295;-73
2021/03/26 09:20:21;;;;;;;18.10;8.32;;;14.30;93.30;;;;;;5093834;28;20016;-73
2021/03/26 09:23:14;;;;;;;16.40;9.23;;;14.30;92.50;;;;;;5067842;28;20059;-74
2021/03/26 09:25:47;;;;;;;19.58;9.60;;;14.20;91.70;;;;;;5077007;28;20565;-74
2021/03/26 09:28:46;;;;;;;19.00;10.27;;;14.20;94.00;;;;;;5073101;28;20020;-74
2021/03/26 09:31:19;;;;;;;16.42;8.23;;;14.20;94.10;;;;;;5077651;28;20033;-74
2021/03/26 09:33:58;;;;;;;15.68;9.43;;;14.20;94.90;;;;;;5075950;28;20051;-73
2021/03/26 09:36:28;;;;;;;16.25;9.50;;;14.30;92.70;;;;;;5074018;28;20025;-73
2021/03/26 09:39:21;;;;;;;19.08;10.27;;;14.20;91.50;;;;;;5073520;28;20040;-73
2021/03/26 09:41:53;;;;;;;13.38;8.05;;;14.20;91.20;;;;;;5071297;28;20078;-73
2021/03/26 09:44:47;;;;;;;17.38;9.20;;;14.20;92.20;;;;;;5074298;28;20554;-73
2021/03/26 09:47:18;;;;;;;13.98;7.32;;;14.30;90.90;;;;;;5075829;28;20368;-74
2021/03/26 09:49:51;;;;;;;16.17;8.55;;;14.40;91.00;;;;;;5073126;28;20029;-73
2021/03/26 09:52:30;;;;;;;12.65;7.32;;;14.50;90.40;;;;;;5074550;28;20036;-74
2021/03/26 09:55:05;;;;;;;14.63;7.90;;;14.60;88.00;;;;;;5075047;28;20036;-74
2021/03/26 09:57:44;;;;;;;14.15;6.70;;;14.70;89.60;;;;;;5073523;28;20027;-74
2021/03/26 10:00:46;;;;;;;14.18;7.22;;;14.50;87.00;;;;;;5074263;28;20120;-74
2021/03/26 10:03:28;;;;;;;11.43;7.03;;;14.50;87.10;;;;;;5076093;28;20024;-74
2021/03/26 10:06:06;;;;;;;15.90;7.93;;;14.50;91.00;;;;;;5073724;28;20107;-73
2021/03/26 10:11:50;;;;;;;11.98;6.40;;;14.60;91.70;;;;;;5073928;28;20031;-73
2021/03/26 10:14:21;;;;;;;14.77;7.25;;;14.70;90.40;;;;;;5076407;28;20040;-73
2021/03/26 10:17:11;;;;;;;10.15;5.20;;;14.80;88.30;;;;;;5069224;28;20056;-73
2021/03/26 10:19:41;;;;;;;11.15;5.75;;;14.90;84.30;;;;;;5066104;28;20497;-73
2021/03/26 10:22:28;;;;;;;9.23;5.32;;;15.00;84.10;;;;;;5074945;28;20462;-73
2021/03/26 10:25:04;;;;;;;;;;;15.10;85.00;;;;;;5074025;28;20573;-73
2021/03/26 10:27:36;;;;;;;6.22;3.63;;;15.10;82.10;;;;;;5068459;28;19908;-73
2021/03/26 10:30:22;;;;;;;6.97;4.28;;;15.20;81.80;;;;;;5058516;28;20036;-73
2021/03/26 10:32:49;;;;;;;;;;;15.10;82.20;;;;;;5046884;28;20487;-73
2021/03/26 10:35:22;;;;;;;9.20;3.83;;;15.10;78.40;;;;;;5062102;28;19920;-74
2021/03/26 10:37:51;;;;;;;10.00;5.20;;;14.90;81.70;;;;;;5058337;28;20075;-73
2021/03/26 10:40:44;;;;;;;7.93;4.22;;;14.80;82.60;;;;;;5057780;28;20031;-74
2021/03/26 10:43:23;;;;;;;9.45;5.43;;;14.70;83.60;;;;;;5062126;28;20029;-74
2021/03/26 10:46:00;;;;;;;6.97;3.45;;;14.70;83.30;;;;;;5060836;28;20048;-74
2021/03/26 10:48:41;;;;;;;8.73;3.95;;;14.70;81.10;;;;;;5058496;28;20037;-74
2021/03/26 10:51:31;;;;;;;5.50;3.08;;;14.70;80.20;;;;;;5059601;28;20033;-74
2021/03/26 10:54:02;;;;;;;7.00;3.17;;;14.70;77.20;;;;;;5062374;28;20482;-74
2021/03/26 10:56:28;;;;;;;6.18;4.00;;;14.60;80.90;;;;;;5061556;28;20365;-73
2021/03/26 10:59:03;;;;;;;6.40;3.53;;;14.70;78.90;;;;;;5059549;28;20115;-74
2021/03/26 11:01:37;;;;;;;6.43;4.15;;;14.70;78.10;;;;;;5053037;28;20076;-74
2021/03/26 11:04:35;;;;;;;7.50;3.67;;;14.70;75.30;;;;;;5057943;28;20025;-74
2021/03/26 11:07:24;;;;;;;8.63;3.50;;;14.70;80.20;;;;;;5052088;28;20124;-74
2021/03/26 11:10:01;;;;;;;6.82;2.97;;;14.80;77.40;;;;;;5059905;28;20021;-74
2021/03/26 11:12:45;;;;;;;4.32;2.67;;;15.00;75.60;;;;;;5058810;28;20113;-74
2021/03/26 11:15:16;;;;;;;4.07;2.13;;;15.10;76.70;;;;;;5059637;28;20037;-74
2021/03/26 11:18:18;;;;;;;5.18;2.78;;;15.30;75.90;;;;;;5057695;28;20373;-74
2021/03/26 11:21:03;;;;;;;5.50;2.78;;;15.40;71.60;;;;;;5057907;28;20027;-74
2021/03/26 11:23:37;;;;;;;3.20;2.35;;;15.40;74.70;;;;;;5075520;28;20029;-74
2021/03/26 11:26:18;;;;;;;4.53;2.37;;;15.40;70.60;;;;;;5058175;28;20072;-74
2021/03/26 11:28:53;;;;;;;5.65;1.98;;;15.30;71.40;;;;;;5056594;28;20466;-74
2021/03/26 11:31:36;;;;;;;3.53;2.35;;;15.30;72.70;;;;;;5061207;28;20021;-74
2021/03/26 11:34:20;;;;;;;4.60;2.67;;;15.10;72.50;;;;;;5042623;28;20029;-74
2021/03/26 11:36:48;;;;;;;3.70;2.42;;;15.00;73.80;;;;;;5057561;28;20033;-74
2021/03/26 11:39:32;;;;;;;3.85;2.50;;;15.00;70.30;;;;;;5057900;28;20116;-74
2021/03/26 11:42:17;;;;;;;4.00;2.30;;;15.00;69.70;;;;;;5056396;28;20056;-74
2021/03/26 11:44:58;;;;;;;4.82;3.08;;;15.10;67.90;;;;;;5091870;28;20060;-74
2021/03/26 11:47:27;;;;;;;4.07;2.72;;;15.20;70.50;;;;;;5062056;28;20033;-74
2021/03/26 11:50:13;;;;;;;5.60;3.30;;;15.20;69.10;;;;;;5051839;28;20420;-74
2021/03/26 11:52:44;;;;;;;4.97;2.10;;;15.40;70.90;;;;;;5059289;28;20036;-74
2021/03/26 11:55:21;;;;;;;2.80;2.22;;;15.60;70.30;;;;;;5053744;28;20029;-74
2021/03/26 11:58:04;;;;;;;3.85;2.05;;;15.80;72.40;;;;;;5051095;28;20025;-73
2021/03/26 12:00:36;;;;;;;3.00;2.17;;;16.00;70.60;;;;;;5053183;28;20507;-73
2021/03/26 12:03:30;;;;;;;5.25;2.53;;;16.20;67.30;;;;;;5085405;28;20028;-73
2021/03/26 12:06:15;;;;;;;5.22;2.50;;;16.30;67.90;;;;;;5089471;28;20044;-73
2021/03/26 12:09:00;;;;;;;4.28;2.70;;;16.30;65.90;;;;;;5051373;28;20166;-73
2021/03/26 12:11:54;;;;;;;5.22;2.30;;;16.20;69.00;;;;;;5053984;28;20028;-74
2021/03/26 12:14:28;;;;;;;3.65;2.50;;;16.30;71.20;;;;;;5052169;28;20041;-72
2021/03/26 12:17:02;;;;;;;3.50;2.47;;;16.40;68.10;;;;;;5054493;28;20032;-71
2021/03/26 12:19:31;;;;;;;6.85;2.97;;;16.70;66.90;;;;;;5056089;28;20108;-72
2021/03/26 12:22:14;;;;;;;5.03;2.90;;;16.90;60.30;;;;;;5055652;28;20038;-72
2021/03/26 12:25:09;;;;;;;4.13;2.17;;;17.00;64.40;;;;;;5059659;28;20369;-72
2021/03/26 12:27:51;;;;;;;3.58;2.63;;;17.20;62.50;;;;;;5057105;28;20514;-72
2021/03/26 12:31:04;;;;;;;4.60;2.35;;;17.20;60.40;;;;;;5057271;28;20032;-72
2021/03/26 12:33:54;;;;;;;3.65;2.65;;;17.20;62.30;;;;;;5036516;28;20099;-72
2021/03/26 12:36:32;;;;;;;6.32;3.42;;;17.00;62.50;;;;;;5053131;28;20044;-73
2021/03/26 12:39:08;;;;;;;6.40;2.75;;;16.80;59.20;;;;;;5056819;28;20033;-72
2021/03/26 12:41:54;;;;;;;3.53;2.20;;;16.70;59.70;;;;;;5049313;28;20120;-72
2021/03/26 12:44:51;;;;;;;3.63;2.45;;;16.60;64.30;;;;;;5053601;28;20023;-73
2021/03/26 12:47:39;;;;;;;6.97;2.58;;;16.60;63.30;;;;;;5008154;28;20051;-74
2021/03/26 12:50:42;;;;;;;5.72;2.47;;;16.70;64.90;;;;;;5054538;28;20465;-73
2021/03/26 12:53:31;;;;;;;5.47;3.00;;;16.70;62.90;;;;;;5053321;28;20151;-73
2021/03/26 12:56:34;;;;;;;6.13;3.10;;;16.90;62.30;;;;;;5046379;28;20041;-72
2021/03/26 12:59:29;;;;;;;5.03;3.22;;;17.10;62.70;;;;;;5057922;28;20021;-74
2021/03/26 13:02:13;;;;;;;5.97;3.30;;;17.20;62.70;;;;;;5060593;28;20023;-73
2021/03/26 13:05:05;;;;;;;6.03;3.50;;;17.10;62.70;;;;;;5059638;28;20029;-73
2021/03/26 13:07:42;;;;;;;6.10;3.50;;;16.90;60.70;;;;;;5056057;28;20549;-73
2021/03/26 13:10:44;;;;;;;7.47;3.53;;;16.60;61.50;;;;;;5058053;28;20028;-72
2021/03/26 13:13:12;;;;;;;7.07;3.45;;;16.60;61.50;;;;;;5055805;28;20044;-72
2021/03/26 13:15:40;;;;;;;5.97;3.40;;;16.60;63.40;;;;;;5055509;28;20242;-73
2021/03/26 13:18:10;;;;;;;6.78;3.80;;;16.60;64.60;;;;;;5057059;28;20029;-73
2021/03/26 13:21:00;;;;;;;4.03;2.55;;;16.80;63.80;;;;;;5054646;28;20046;-73
2021/03/26 13:23:33;;;;;;;5.30;3.28;;;17.00;64.60;;;;;;5054523;28;20025;-74
2021/03/26 13:26:04;;;;;;;6.03;3.75;;;17.00;65.90;;;;;;5062628;28;20159;-72
2021/03/26 13:28:41;;;;;;;4.82;3.15;;;17.10;61.50;;;;;;5054931;28;20043;-73
2021/03/26 13:31:16;;;;;;;5.40;3.65;;;17.20;65.10;;;;;;5058992;28;20021;-73
2021/03/26 13:34:20;;;;;;;5.93;3.22;;;17.30;61.10;;;;;;5034767;28;20115;-72
2021/03/26 13:36:55;;;;;;;3.80;2.78;;;17.20;62.40;;;;;;5044955;28;20045;-73
2021/03/26 13:39:21;;;;;;;6.72;3.15;;;17.40;61.30;;;;;;5055312;28;20380;-73
2021/03/26 13:41:57;;;;;;;5.18;3.10;;;17.40;59.50;;;;;;5058307;28;20624;-73
2021/03/26 13:44:38;;;;;;;6.43;3.53;;;17.40;59.60;;;;;;5055433;28;20048;-73
2021/03/26 13:47:13;;;;;;;4.50;3.47;;;17.50;61.00;;;;;;5055792;28;20031;-72
2021/03/26 13:49:49;;;;;;;6.28;3.05;;;17.50;59.20;;;;;;5056239;28;20032;-73
2021/03/26 13:52:28;;;;;;;7.28;3.75;;;17.70;59.40;;;;;;5088447;28;20106;-73
2021/03/26 13:55:16;;;;;;;4.90;3.13;;;17.80;55.90;;;;;;5058017;28;20036;-72
2021/03/26 13:57:44;;;;;;;5.50;3.17;;;17.80;59.20;;;;;;5052376;28;20028;-73
2021/03/26 14:00:15;;;;;;;6.53;3.55;;;17.60;57.50;;;;;;5057827;28;20074;-73
2021/03/26 14:02:46;;;;;;;5.57;3.38;;;17.60;57.60;;;;;;5059887;28;20107;-73
2021/03/26 14:05:23;;;;;;;7.20;3.70;;;17.70;58.10;;;;;;5062511;28;20108;-73